sensor_id;sensor_type;location;lat;lon;timestamp;pressure;altitude;pressure_sealevel;temperature;humidity
84380;BME280;74571;52.514;13.468;2023-12-20T00:01:57;100426.84;;;7.01;90.40
84380;BME280;74571;52.514;13.468;2023-12-20T00:04:22;100427.97;;;7.07;90.50
84380;BME280;74571;52.514;13.468;2023-12-20T00:06:55;100421.66;;;7.08;90.73
84380;BME280;74571;52.514;13.468;2023-12-20T00:09:23;100420.63;;;7.09;90.40
84380;BME280;74571;52.514;13.468;2023-12-20T00:11:58;100417.13;;;7.09;90.22
84380;BME280;74571;52.514;13.468;2023-12-20T00:14:58;100417.53;;;7.06;90.71
84380;BME280;74571;52.514;13.468;2023-12-20T00:17:26;100415.31;;;7.09;90.85
84380;BME280;74571;52.514;13.468;2023-12-20T00:20:04;100408.16;;;7.10;90.68
84380;BME280;74571;52.514;13.468;2023-12-20T00:22:34;100404.22;;;7.06;89.71
84380;BME280;74571;52.514;13.468;2023-12-20T00:24:59;100402.91;;;7.01;90.93
84380;BME280;74571;52.514;13.468;2023-12-20T00:27:29;100408.72;;;7.05;90.86
84380;BME280;74571;52.514;13.468;2023-12-20T00:29:54;100402.56;;;7.04;90.52
84380;BME280;74571;52.514;13.468;2023-12-20T00:32:20;100405.06;;;7.06;90.62
84380;BME280;74571;52.514;13.468;2023-12-20T00:34:45;100401.72;;;7.04;90.91
84380;BME280;74571;52.514;13.468;2023-12-20T00:37:10;100394.28;;;6.99;90.38
84380;BME280;74571;52.514;13.468;2023-12-20T00:39:36;100387.31;;;6.98;90.56
84380;BME280;74571;52.514;13.468;2023-12-20T00:42:01;100393.28;;;7.00;91.23
84380;BME280;74571;52.514;13.468;2023-12-20T00:44:26;100401.06;;;7.02;90.77
84380;BME280;74571;52.514;13.468;2023-12-20T00:46:51;100402.84;;;7.10;91.16
84380;BME280;74571;52.514;13.468;2023-12-20T00:49:16;100402.22;;;7.08;90.41
84380;BME280;74571;52.514;13.468;2023-12-20T00:51:42;100395.75;;;7.02;90.91
84380;BME280;74571;52.514;13.468;2023-12-20T00:54:07;100391.44;;;7.01;90.96
84380;BME280;74571;52.514;13.468;2023-12-20T00:56:33;100395.59;;;7.03;90.70
84380;BME280;74571;52.514;13.468;2023-12-20T00:58:58;100385.13;;;7.02;90.63
84380;BME280;74571;52.514;13.468;2023-12-20T01:01:24;100385.78;;;7.04;90.51
84380;BME280;74571;52.514;13.468;2023-12-20T01:03:49;100392.44;;;7.00;91.15
84380;BME280;74571;52.514;13.468;2023-12-20T01:06:16;100400.06;;;7.03;91.28
84380;BME280;74571;52.514;13.468;2023-12-20T01:08:41;100403.91;;;7.00;90.46
84380;BME280;74571;52.514;13.468;2023-12-20T01:11:07;100397.59;;;7.01;90.89
84380;BME280;74571;52.514;13.468;2023-12-20T01:13:32;100407.41;;;7.01;90.63
84380;BME280;74571;52.514;13.468;2023-12-20T01:15:57;100406.88;;;7.06;91.13
84380;BME280;74571;52.514;13.468;2023-12-20T01:18:22;100403.56;;;7.03;90.49
84380;BME280;74571;52.514;13.468;2023-12-20T01:20:48;100400.38;;;7.08;91.16
84380;BME280;74571;52.514;13.468;2023-12-20T01:23:13;100405.41;;;7.03;90.33
84380;BME280;74571;52.514;13.468;2023-12-20T01:25:39;100404.03;;;7.07;91.30
84380;BME280;74571;52.514;13.468;2023-12-20T01:28:04;100396.41;;;7.04;91.07
84380;BME280;74571;52.514;13.468;2023-12-20T01:30:29;100390.78;;;6.99;91.17
84380;BME280;74571;52.514;13.468;2023-12-20T01:32:54;100391.91;;;7.04;91.84
84380;BME280;74571;52.514;13.468;2023-12-20T01:35:20;100398.25;;;7.03;92.34
84380;BME280;74571;52.514;13.468;2023-12-20T01:37:45;100398.59;;;7.00;91.48
84380;BME280;74571;52.514;13.468;2023-12-20T01:40:10;100391.78;;;6.98;91.90
84380;BME280;74571;52.514;13.468;2023-12-20T01:42:36;100391.97;;;6.96;92.61
84380;BME280;74571;52.514;13.468;2023-12-20T01:45:01;100395.94;;;7.00;92.54
84380;BME280;74571;52.514;13.468;2023-12-20T01:47:27;100396.25;;;7.06;92.23
84380;BME280;74571;52.514;13.468;2023-12-20T01:49:53;100392.44;;;7.00;92.11
84380;BME280;74571;52.514;13.468;2023-12-20T01:52:19;100394.09;;;7.01;92.39
84380;BME280;74571;52.514;13.468;2023-12-20T01:54:45;100390.13;;;6.97;92.30
84380;BME280;74571;52.514;13.468;2023-12-20T01:57:12;100392.63;;;6.98;92.15
84380;BME280;74571;52.514;13.468;2023-12-20T01:59:39;100389.13;;;6.98;92.59
84380;BME280;74571;52.514;13.468;2023-12-20T02:02:05;100384.81;;;6.97;92.22
84380;BME280;74571;52.514;13.468;2023-12-20T02:04:31;100396.47;;;6.96;92.09
84380;BME280;74571;52.514;13.468;2023-12-20T02:06:59;100384.53;;;6.92;91.88
84380;BME280;74571;52.514;13.468;2023-12-20T02:09:24;100386.91;;;6.87;92.66
84380;BME280;74571;52.514;13.468;2023-12-20T02:11:50;100378.56;;;6.90;92.72
84380;BME280;74571;52.514;13.468;2023-12-20T02:14:15;100370.13;;;6.86;92.49
84380;BME280;74571;52.514;13.468;2023-12-20T02:16:40;100370.28;;;6.85;92.52
84380;BME280;74571;52.514;13.468;2023-12-20T02:19:13;100380.94;;;6.85;90.41
84380;BME280;74571;52.514;13.468;2023-12-20T02:21:39;100381.44;;;6.80;90.21
84380;BME280;74571;52.514;13.468;2023-12-20T02:24:04;100375.69;;;6.77;89.96
84380;BME280;74571;52.514;13.468;2023-12-20T02:26:29;100372.38;;;6.75;87.23
84380;BME280;74571;52.514;13.468;2023-12-20T02:28:56;100365.38;;;6.74;88.06
84380;BME280;74571;52.514;13.468;2023-12-20T02:31:22;100362.06;;;6.72;88.67
84380;BME280;74571;52.514;13.468;2023-12-20T02:33:48;100364.38;;;6.75;88.15
84380;BME280;74571;52.514;13.468;2023-12-20T02:36:16;100370.53;;;6.75;89.77
84380;BME280;74571;52.514;13.468;2023-12-20T02:38:41;100377.84;;;6.73;89.46
84380;BME280;74571;52.514;13.468;2023-12-20T02:41:06;100371.72;;;6.73;90.60
84380;BME280;74571;52.514;13.468;2023-12-20T02:43:32;100357.59;;;6.72;91.11
84380;BME280;74571;52.514;13.468;2023-12-20T02:45:57;100354.75;;;6.74;91.01
84380;BME280;74571;52.514;13.468;2023-12-20T02:48:22;100365.84;;;6.77;91.54
84380;BME280;74571;52.514;13.468;2023-12-20T02:50:48;100354.41;;;6.77;91.32
84380;BME280;74571;52.514;13.468;2023-12-20T02:53:14;100369.63;;;6.83;91.41
84380;BME280;74571;52.514;13.468;2023-12-20T02:55:39;100364.97;;;6.85;91.27
84380;BME280;74571;52.514;13.468;2023-12-20T02:58:04;100368.28;;;6.87;90.68
84380;BME280;74571;52.514;13.468;2023-12-20T03:00:30;100372.25;;;6.91;90.96
84380;BME280;74571;52.514;13.468;2023-12-20T03:02:55;100368.59;;;6.92;90.76
84380;BME280;74571;52.514;13.468;2023-12-20T03:05:20;100369.41;;;6.92;90.42
84380;BME280;74571;52.514;13.468;2023-12-20T03:07:46;100367.94;;;6.90;89.59
84380;BME280;74571;52.514;13.468;2023-12-20T03:10:11;100362.78;;;6.88;89.35
84380;BME280;74571;52.514;13.468;2023-12-20T03:12:36;100368.59;;;6.92;88.29
84380;BME280;74571;52.514;13.468;2023-12-20T03:15:03;100378.91;;;6.87;89.30
84380;BME280;74571;52.514;13.468;2023-12-20T03:17:28;100377.41;;;6.92;88.04
84380;BME280;74571;52.514;13.468;2023-12-20T03:19:54;100371.94;;;6.86;88.21
84380;BME280;74571;52.514;13.468;2023-12-20T03:22:19;100376.25;;;6.87;87.90
84380;BME280;74571;52.514;13.468;2023-12-20T03:24:44;100377.78;;;6.81;87.66
84380;BME280;74571;52.514;13.468;2023-12-20T03:27:10;100383.59;;;6.85;88.69
84380;BME280;74571;52.514;13.468;2023-12-20T03:29:35;100374.78;;;6.84;88.42
84380;BME280;74571;52.514;13.468;2023-12-20T03:32:00;100371.81;;;6.79;88.53
84380;BME280;74571;52.514;13.468;2023-12-20T03:34:26;100378.34;;;6.77;87.56
84380;BME280;74571;52.514;13.468;2023-12-20T03:36:51;100378.34;;;6.77;88.38
84380;BME280;74571;52.514;13.468;2023-12-20T03:39:16;100378.13;;;6.78;88.00
84380;BME280;74571;52.514;13.468;2023-12-20T03:41:42;100381.16;;;6.75;87.77
84380;BME280;74571;52.514;13.468;2023-12-20T03:44:07;100386.94;;;6.79;87.06
84380;BME280;74571;52.514;13.468;2023-12-20T03:46:32;100384.44;;;6.77;87.97
84380;BME280;74571;52.514;13.468;2023-12-20T03:48:58;100383.00;;;6.75;87.91
84380;BME280;74571;52.514;13.468;2023-12-20T03:51:23;100375.72;;;6.68;88.81
84380;BME280;74571;52.514;13.468;2023-12-20T03:53:48;100380.84;;;6.70;88.02
84380;BME280;74571;52.514;13.468;2023-12-20T03:56:13;100370.06;;;6.72;87.86
84380;BME280;74571;52.514;13.468;2023-12-20T03:58:38;100369.22;;;6.71;87.33
84380;BME280;74571;52.514;13.468;2023-12-20T04:01:09;100367.91;;;6.67;88.71
84380;BME280;74571;52.514;13.468;2023-12-20T04:03:35;100362.41;;;6.68;87.69
84380;BME280;74571;52.514;13.468;2023-12-20T04:06:00;100362.78;;;6.65;86.86
84380;BME280;74571;52.514;13.468;2023-12-20T04:08:25;100361.94;;;6.65;88.11
84380;BME280;74571;52.514;13.468;2023-12-20T04:10:51;100357.94;;;6.69;87.34
84380;BME280;74571;52.514;13.468;2023-12-20T04:13:16;100358.09;;;6.67;86.69
84380;BME280;74571;52.514;13.468;2023-12-20T04:15:41;100345.88;;;6.58;87.42
84380;BME280;74571;52.514;13.468;2023-12-20T04:18:06;100354.22;;;6.55;87.09
84380;BME280;74571;52.514;13.468;2023-12-20T04:20:32;100353.56;;;6.53;87.29
84380;BME280;74571;52.514;13.468;2023-12-20T04:22:57;100353.56;;;6.53;86.75
84380;BME280;74571;52.514;13.468;2023-12-20T04:25:22;100344.91;;;6.51;86.95
84380;BME280;74571;52.514;13.468;2023-12-20T04:27:47;100343.78;;;6.46;87.50
84380;BME280;74571;52.514;13.468;2023-12-20T04:30:13;100350.66;;;6.40;87.49
84380;BME280;74571;52.514;13.468;2023-12-20T04:32:38;100338.88;;;6.34;87.89
84380;BME280;74571;52.514;13.468;2023-12-20T04:35:04;100337.63;;;6.22;88.32
84380;BME280;74571;52.514;13.468;2023-12-20T04:37:29;100334.31;;;6.20;87.99
84380;BME280;74571;52.514;13.468;2023-12-20T04:39:54;100340.31;;;6.14;87.19
84380;BME280;74571;52.514;13.468;2023-12-20T04:42:20;100347.16;;;6.09;87.18
84380;BME280;74571;52.514;13.468;2023-12-20T04:44:45;100350.31;;;6.04;88.33
84380;BME280;74571;52.514;13.468;2023-12-20T04:47:10;100349.53;;;5.95;88.33
84380;BME280;74571;52.514;13.468;2023-12-20T04:49:36;100353.53;;;5.91;88.25
84380;BME280;74571;52.514;13.468;2023-12-20T04:52:01;100354.88;;;5.79;89.10
84380;BME280;74571;52.514;13.468;2023-12-20T04:54:26;100348.19;;;5.83;88.33
84380;BME280;74571;52.514;13.468;2023-12-20T04:56:51;100339.25;;;5.84;88.76
84380;BME280;74571;52.514;13.468;2023-12-20T04:59:17;100342.91;;;5.83;88.85
84380;BME280;74571;52.514;13.468;2023-12-20T05:01:42;100338.25;;;5.85;88.39
84380;BME280;74571;52.514;13.468;2023-12-20T05:04:07;100346.88;;;5.87;88.65
84380;BME280;74571;52.514;13.468;2023-12-20T05:06:32;100349.72;;;5.94;87.07
84380;BME280;74571;52.514;13.468;2023-12-20T05:08:58;100355.81;;;6.03;87.33
84380;BME280;74571;52.514;13.468;2023-12-20T05:11:23;100362.44;;;6.07;86.60
84380;BME280;74571;52.514;13.468;2023-12-20T05:13:48;100355.63;;;6.12;85.87
84380;BME280;74571;52.514;13.468;2023-12-20T05:16:14;100356.06;;;6.16;85.72
84380;BME280;74571;52.514;13.468;2023-12-20T05:18:39;100353.06;;;6.19;84.97
84380;BME280;74571;52.514;13.468;2023-12-20T05:21:05;100352.56;;;6.23;85.24
84380;BME280;74571;52.514;13.468;2023-12-20T05:23:30;100365.19;;;6.21;85.32
84380;BME280;74571;52.514;13.468;2023-12-20T05:25:55;100357.72;;;6.17;86.58
84380;BME280;74571;52.514;13.468;2023-12-20T05:28:21;100347.47;;;6.14;85.69
84380;BME280;74571;52.514;13.468;2023-12-20T05:30:46;100351.16;;;6.05;86.48
84380;BME280;74571;52.514;13.468;2023-12-20T05:33:11;100348.88;;;5.93;86.13
84380;BME280;74571;52.514;13.468;2023-12-20T05:35:36;100350.84;;;5.83;86.27
84380;BME280;74571;52.514;13.468;2023-12-20T05:38:02;100357.19;;;5.74;87.21
84380;BME280;74571;52.514;13.468;2023-12-20T05:40:27;100348.63;;;5.64;86.48
84380;BME280;74571;52.514;13.468;2023-12-20T05:42:53;100347.13;;;5.61;87.15
84380;BME280;74571;52.514;13.468;2023-12-20T05:45:19;100346.13;;;5.54;86.91
84380;BME280;74571;52.514;13.468;2023-12-20T05:47:44;100346.66;;;5.50;86.80
84380;BME280;74571;52.514;13.468;2023-12-20T05:50:09;100349.97;;;5.44;87.67
84380;BME280;74571;52.514;13.468;2023-12-20T05:52:35;100348.00;;;5.38;88.02
84380;BME280;74571;52.514;13.468;2023-12-20T05:55:00;100337.09;;;5.33;87.46
84380;BME280;74571;52.514;13.468;2023-12-20T05:57:28;100330.44;;;5.28;88.33
84380;BME280;74571;52.514;13.468;2023-12-20T05:59:53;100341.72;;;5.22;88.72
84380;BME280;74571;52.514;13.468;2023-12-20T06:02:19;100348.19;;;5.20;88.32
84380;BME280;74571;52.514;13.468;2023-12-20T06:04:44;100348.69;;;5.15;88.82
84380;BME280;74571;52.514;13.468;2023-12-20T06:07:13;100347.38;;;5.19;88.70
84380;BME280;74571;52.514;13.468;2023-12-20T06:09:39;100344.06;;;5.17;88.78
84380;BME280;74571;52.514;13.468;2023-12-20T06:12:04;100332.63;;;5.17;88.79
84380;BME280;74571;52.514;13.468;2023-12-20T06:14:30;100326.50;;;5.16;88.66
84380;BME280;74571;52.514;13.468;2023-12-20T06:16:56;100323.47;;;5.27;87.64
84380;BME280;74571;52.514;13.468;2023-12-20T06:19:21;100322.16;;;5.32;88.31
84380;BME280;74571;52.514;13.468;2023-12-20T06:21:46;100329.63;;;5.28;87.51
84380;BME280;74571;52.514;13.468;2023-12-20T06:24:12;100322.31;;;5.22;87.45
84380;BME280;74571;52.514;13.468;2023-12-20T06:26:37;100317.03;;;5.22;87.81
84380;BME280;74571;52.514;13.468;2023-12-20T06:29:02;100314.19;;;5.23;87.50
84380;BME280;74571;52.514;13.468;2023-12-20T06:31:27;100335.75;;;5.28;87.03
84380;BME280;74571;52.514;13.468;2023-12-20T06:33:53;100336.09;;;5.25;88.00
84380;BME280;74571;52.514;13.468;2023-12-20T06:36:25;100333.25;;;5.27;87.54
84380;BME280;74571;52.514;13.468;2023-12-20T06:38:56;100327.63;;;5.30;87.12
84380;BME280;74571;52.514;13.468;2023-12-20T06:41:22;100328.47;;;5.31;87.64
84380;BME280;74571;52.514;13.468;2023-12-20T06:43:50;100331.09;;;5.39;87.33
84380;BME280;74571;52.514;13.468;2023-12-20T06:46:15;100331.56;;;5.42;87.09
84380;BME280;74571;52.514;13.468;2023-12-20T06:48:41;100335.22;;;5.41;87.20
84380;BME280;74571;52.514;13.468;2023-12-20T06:51:11;100327.44;;;5.40;87.20
84380;BME280;74571;52.514;13.468;2023-12-20T06:53:37;100325.94;;;5.37;86.49
84380;BME280;74571;52.514;13.468;2023-12-20T06:56:03;100321.47;;;5.38;86.92
84380;BME280;74571;52.514;13.468;2023-12-20T06:58:28;100317.97;;;5.37;87.61
84380;BME280;74571;52.514;13.468;2023-12-20T07:00:54;100329.25;;;5.39;87.41
84380;BME280;74571;52.514;13.468;2023-12-20T07:03:19;100318.66;;;5.47;86.94
84380;BME280;74571;52.514;13.468;2023-12-20T07:05:44;100319.13;;;5.51;86.65
84380;BME280;74571;52.514;13.468;2023-12-20T07:08:09;100318.31;;;5.50;86.69
84380;BME280;74571;52.514;13.468;2023-12-20T07:10:36;100316.28;;;5.52;86.44
84380;BME280;74571;52.514;13.468;2023-12-20T07:13:01;100318.78;;;5.54;86.22
84380;BME280;74571;52.514;13.468;2023-12-20T07:15:26;100312.97;;;5.58;85.98
84380;BME280;74571;52.514;13.468;2023-12-20T07:17:52;100320.75;;;5.60;86.47
84380;BME280;74571;52.514;13.468;2023-12-20T07:20:17;100314.63;;;5.59;86.38
84380;BME280;74571;52.514;13.468;2023-12-20T07:22:42;100318.44;;;5.65;85.63
84380;BME280;74571;52.514;13.468;2023-12-20T07:25:08;100311.75;;;5.69;85.98
84380;BME280;74571;52.514;13.468;2023-12-20T07:27:33;100324.19;;;5.77;85.88
84380;BME280;74571;52.514;13.468;2023-12-20T07:29:58;100315.06;;;5.79;85.46
84380;BME280;74571;52.514;13.468;2023-12-20T07:32:24;100319.84;;;5.84;85.48
84380;BME280;74571;52.514;13.468;2023-12-20T07:34:49;100313.06;;;5.81;86.15
84380;BME280;74571;52.514;13.468;2023-12-20T07:37:14;100311.88;;;5.84;85.22
84380;BME280;74571;52.514;13.468;2023-12-20T07:39:40;100320.34;;;5.95;85.33
84380;BME280;74571;52.514;13.468;2023-12-20T07:42:09;100305.41;;;5.94;83.98
84380;BME280;74571;52.514;13.468;2023-12-20T07:44:34;100306.91;;;5.89;84.70
84380;BME280;74571;52.514;13.468;2023-12-20T07:47:01;100306.09;;;5.88;85.12
84380;BME280;74571;52.514;13.468;2023-12-20T07:49:26;100295.47;;;5.88;83.77
84380;BME280;74571;52.514;13.468;2023-12-20T07:51:51;100295.47;;;5.88;83.87
84380;BME280;74571;52.514;13.468;2023-12-20T07:54:17;100292.63;;;5.90;84.33
84380;BME280;74571;52.514;13.468;2023-12-20T07:56:42;100305.22;;;5.88;83.93
84380;BME280;74571;52.514;13.468;2023-12-20T07:59:07;100296.78;;;5.92;84.26
84380;BME280;74571;52.514;13.468;2023-12-20T08:01:32;100300.25;;;5.93;83.83
84380;BME280;74571;52.514;13.468;2023-12-20T08:03:58;100304.75;;;5.92;83.63
84380;BME280;74571;52.514;13.468;2023-12-20T08:06:23;100302.09;;;5.92;83.50
84380;BME280;74571;52.514;13.468;2023-12-20T08:08:48;100311.38;;;5.96;83.24
84380;BME280;74571;52.514;13.468;2023-12-20T08:11:14;100308.00;;;6.03;83.32
84380;BME280;74571;52.514;13.468;2023-12-20T08:13:39;100309.31;;;6.07;82.98
84380;BME280;74571;52.514;13.468;2023-12-20T08:16:05;100317.78;;;6.10;82.01
84380;BME280;74571;52.514;13.468;2023-12-20T08:18:30;100312.47;;;6.10;82.29
84380;BME280;74571;52.514;13.468;2023-12-20T08:20:55;100304.66;;;6.09;82.22
84380;BME280;74571;52.514;13.468;2023-12-20T08:23:21;100310.47;;;6.12;82.51
84380;BME280;74571;52.514;13.468;2023-12-20T08:25:46;100306.31;;;6.10;82.86
84380;BME280;74571;52.514;13.468;2023-12-20T08:28:12;100313.63;;;6.08;83.79
84380;BME280;74571;52.514;13.468;2023-12-20T08:30:39;100300.34;;;6.08;83.68
84380;BME280;74571;52.514;13.468;2023-12-20T08:33:06;100300.28;;;6.16;82.78
84380;BME280;74571;52.514;13.468;2023-12-20T08:35:36;100306.59;;;6.15;82.13
84380;BME280;74571;52.514;13.468;2023-12-20T08:38:01;100300.78;;;6.19;82.88
84380;BME280;74571;52.514;13.468;2023-12-20T08:40:26;100283.00;;;6.20;82.54
84380;BME280;74571;52.514;13.468;2023-12-20T08:42:52;100298.91;;;6.28;82.30
84380;BME280;74571;52.514;13.468;2023-12-20T08:45:17;100288.81;;;6.23;81.24
84380;BME280;74571;52.514;13.468;2023-12-20T08:47:42;100287.63;;;6.26;81.54
84380;BME280;74571;52.514;13.468;2023-12-20T08:50:10;100288.41;;;6.34;81.09
84380;BME280;74571;52.514;13.468;2023-12-20T08:52:35;100278.56;;;6.43;81.53
84380;BME280;74571;52.514;13.468;2023-12-20T08:55:00;100276.56;;;6.45;81.23
84380;BME280;74571;52.514;13.468;2023-12-20T08:57:26;100270.88;;;6.48;81.52
84380;BME280;74571;52.514;13.468;2023-12-20T08:59:51;100274.78;;;6.38;81.31
84380;BME280;74571;52.514;13.468;2023-12-20T09:02:17;100273.63;;;6.32;81.08
84380;BME280;74571;52.514;13.468;2023-12-20T09:04:43;100271.53;;;6.27;81.84
84380;BME280;74571;52.514;13.468;2023-12-20T09:07:21;100273.63;;;6.32;81.50
84380;BME280;74571;52.514;13.468;2023-12-20T09:09:47;100278.00;;;6.48;80.91
84380;BME280;74571;52.514;13.468;2023-12-20T09:12:12;100277.97;;;6.56;80.93
84380;BME280;74571;52.514;13.468;2023-12-20T09:14:38;100286.09;;;6.77;80.63
84380;BME280;74571;52.514;13.468;2023-12-20T09:17:03;100284.56;;;6.83;79.93
84380;BME280;74571;52.514;13.468;2023-12-20T09:19:28;100278.56;;;6.81;79.56
84380;BME280;74571;52.514;13.468;2023-12-20T09:21:54;100273.25;;;6.81;80.10
84380;BME280;74571;52.514;13.468;2023-12-20T09:24:19;100272.91;;;6.84;80.43
84380;BME280;74571;52.514;13.468;2023-12-20T09:26:45;100260.97;;;6.80;79.34
84380;BME280;74571;52.514;13.468;2023-12-20T09:29:10;100272.91;;;6.84;79.82
84380;BME280;74571;52.514;13.468;2023-12-20T09:31:40;100260.97;;;6.80;79.52
84380;BME280;74571;52.514;13.468;2023-12-20T09:34:05;100263.63;;;6.80;79.29
84380;BME280;74571;52.514;13.468;2023-12-20T09:36:31;100254.38;;;6.76;78.59
84380;BME280;74571;52.514;13.468;2023-12-20T09:38:59;100265.28;;;6.81;79.52
84380;BME280;74571;52.514;13.468;2023-12-20T09:41:25;100257.13;;;6.82;80.17
84380;BME280;74571;52.514;13.468;2023-12-20T09:43:52;100268.25;;;6.86;79.43
84380;BME280;74571;52.514;13.468;2023-12-20T09:46:21;100267.94;;;6.81;79.40
84380;BME280;74571;52.514;13.468;2023-12-20T09:48:49;100272.72;;;6.85;79.51
84380;BME280;74571;52.514;13.468;2023-12-20T09:51:15;100277.22;;;6.85;79.79
84380;BME280;74571;52.514;13.468;2023-12-20T09:53:41;100259.25;;;6.87;78.90
84380;BME280;74571;52.514;13.468;2023-12-20T09:56:07;100246.84;;;6.79;79.76
84380;BME280;74571;52.514;13.468;2023-12-20T09:58:36;100259.97;;;6.81;79.88
84380;BME280;74571;52.514;13.468;2023-12-20T10:01:04;100253.94;;;6.87;79.15
84380;BME280;74571;52.514;13.468;2023-12-20T10:03:31;100251.59;;;6.92;79.57
84380;BME280;74571;52.514;13.468;2023-12-20T10:05:57;100254.97;;;7.00;79.63
84380;BME280;74571;52.514;13.468;2023-12-20T10:08:25;100231.94;;;6.93;77.97
84380;BME280;74571;52.514;13.468;2023-12-20T10:10:51;100230.09;;;6.93;78.08
84380;BME280;74571;52.514;13.468;2023-12-20T10:13:16;100232.41;;;6.96;78.80
84380;BME280;74571;52.514;13.468;2023-12-20T10:15:42;100218.03;;;6.91;78.36
84380;BME280;74571;52.514;13.468;2023-12-20T10:18:08;100217.84;;;6.92;78.25
84380;BME280;74571;52.514;13.468;2023-12-20T10:20:33;100223.34;;;6.91;77.79
84380;BME280;74571;52.514;13.468;2023-12-20T10:22:59;100209.66;;;6.94;77.95
84380;BME280;74571;52.514;13.468;2023-12-20T10:25:25;100208.38;;;6.90;78.01
84380;BME280;74571;52.514;13.468;2023-12-20T10:28:09;100207.81;;;6.94;77.14
84380;BME280;74571;52.514;13.468;2023-12-20T10:30:35;100210.41;;;6.88;77.63
84380;BME280;74571;52.514;13.468;2023-12-20T10:33:01;100199.66;;;6.81;78.61
84380;BME280;74571;52.514;13.468;2023-12-20T10:35:26;100207.00;;;6.94;78.08
84380;BME280;74571;52.514;13.468;2023-12-20T10:37:55;100194.53;;;6.94;77.87
84380;BME280;74571;52.514;13.468;2023-12-20T10:40:22;100190.50;;;6.98;78.18
84380;BME280;74571;52.514;13.468;2023-12-20T10:42:48;100180.63;;;7.07;76.59
84380;BME280;74571;52.514;13.468;2023-12-20T10:45:13;100177.56;;;7.10;76.70
84380;BME280;74571;52.514;13.468;2023-12-20T10:47:40;100177.56;;;7.10;77.12
84380;BME280;74571;52.514;13.468;2023-12-20T10:50:08;100164.81;;;7.20;77.30
84380;BME280;74571;52.514;13.468;2023-12-20T10:52:34;100165.91;;;7.26;77.28
84380;BME280;74571;52.514;13.468;2023-12-20T10:55:04;100160.75;;;7.24;75.93
84380;BME280;74571;52.514;13.468;2023-12-20T10:57:29;100161.69;;;7.17;75.58
84380;BME280;74571;52.514;13.468;2023-12-20T10:59:58;100150.41;;;7.15;76.21
84380;BME280;74571;52.514;13.468;2023-12-20T11:02:26;100158.41;;;7.15;76.13
84380;BME280;74571;52.514;13.468;2023-12-20T11:05:10;100155.09;;;7.13;75.42
84380;BME280;74571;52.514;13.468;2023-12-20T11:07:55;100140.78;;;7.14;76.39
84380;BME280;74571;52.514;13.468;2023-12-20T11:10:31;100144.28;;;7.14;75.43
84380;BME280;74571;52.514;13.468;2023-12-20T11:13:08;100137.22;;;7.21;75.54
84380;BME280;74571;52.514;13.468;2023-12-20T11:15:36;100133.25;;;7.17;74.84
84380;BME280;74571;52.514;13.468;2023-12-20T11:18:03;100128.13;;;7.16;75.68
84380;BME280;74571;52.514;13.468;2023-12-20T11:20:36;100134.47;;;7.15;76.32
84380;BME280;74571;52.514;13.468;2023-12-20T11:23:02;100120.06;;;7.09;77.66
84380;BME280;74571;52.514;13.468;2023-12-20T11:25:27;100116.38;;;7.10;77.80
84380;BME280;74571;52.514;13.468;2023-12-20T11:28:10;100105.09;;;7.23;77.44
84380;BME280;74571;52.514;13.468;2023-12-20T11:30:55;100097.03;;;7.16;77.74
84380;BME280;74571;52.514;13.468;2023-12-20T11:33:45;100102.72;;;7.13;77.21
84380;BME280;74571;52.514;13.468;2023-12-20T11:36:14;100095.28;;;7.09;79.37
84380;BME280;74571;52.514;13.468;2023-12-20T11:38:55;100092.75;;;7.00;79.66
84380;BME280;74571;52.514;13.468;2023-12-20T11:41:23;100084.47;;;6.95;79.29
84380;BME280;74571;52.514;13.468;2023-12-20T11:43:53;100079.63;;;6.99;80.02
84380;BME280;74571;52.514;13.468;2023-12-20T11:46:18;100065.97;;;7.02;79.92
84380;BME280;74571;52.514;13.468;2023-12-20T11:48:44;100067.97;;;7.00;79.38
84380;BME280;74571;52.514;13.468;2023-12-20T11:51:10;100060.28;;;7.05;79.06
84380;BME280;74571;52.514;13.468;2023-12-20T11:53:36;100056.97;;;7.03;78.08
84380;BME280;74571;52.514;13.468;2023-12-20T11:56:03;100056.59;;;7.06;79.20
84380;BME280;74571;52.514;13.468;2023-12-20T11:58:28;100051.84;;;7.01;78.60
84380;BME280;74571;52.514;13.468;2023-12-20T12:00:55;100048.00;;;7.04;79.34
84380;BME280;74571;52.514;13.468;2023-12-20T12:03:20;100046.84;;;7.13;79.28
84380;BME280;74571;52.514;13.468;2023-12-20T12:05:47;100045.84;;;7.14;78.84
84380;BME280;74571;52.514;13.468;2023-12-20T12:08:12;100021.81;;;7.22;78.81
84380;BME280;74571;52.514;13.468;2023-12-20T12:10:38;100020.28;;;7.34;77.65
84380;BME280;74571;52.514;13.468;2023-12-20T12:13:03;100009.84;;;7.33;77.46
84380;BME280;74571;52.514;13.468;2023-12-20T12:15:29;99997.88;;;7.22;78.03
84380;BME280;74571;52.514;13.468;2023-12-20T12:17:55;100000.00;;;7.12;77.77
84380;BME280;74571;52.514;13.468;2023-12-20T12:20:21;99994.03;;;7.10;77.57
84380;BME280;74571;52.514;13.468;2023-12-20T12:22:57;99986.78;;;7.19;77.70
84380;BME280;74571;52.514;13.468;2023-12-20T12:25:22;99976.94;;;7.19;77.47
84380;BME280;74571;52.514;13.468;2023-12-20T12:27:51;99969.22;;;7.24;77.45
84380;BME280;74571;52.514;13.468;2023-12-20T12:30:17;99965.50;;;7.19;77.69
84380;BME280;74571;52.514;13.468;2023-12-20T12:32:44;99964.16;;;7.08;77.28
84380;BME280;74571;52.514;13.468;2023-12-20T12:35:09;99976.19;;;7.04;79.20
84380;BME280;74571;52.514;13.468;2023-12-20T12:37:37;99966.94;;;7.00;79.37
84380;BME280;74571;52.514;13.468;2023-12-20T12:40:17;99960.13;;;6.97;80.39
84380;BME280;74571;52.514;13.468;2023-12-20T12:42:45;99959.06;;;6.92;79.77
84380;BME280;74571;52.514;13.468;2023-12-20T12:45:11;99953.41;;;6.80;81.51
84380;BME280;74571;52.514;13.468;2023-12-20T12:47:37;99948.34;;;6.85;80.82